Main page
METAR-TAF:

METAR-TAF

Airports :

Qazvin, Iran

Qazvin Airport

latitude: 36-15N, longitude: 050-00E, elevation: 1278 m

Current weather observation

The report was made 41 minutes ago, at 03:00 UTC
Wind 4 kt from the North/Northeast
Temperature 11°C
Humidity 94%
Pressure 1023 hPa
Visibility 10 km or more
Scattered clouds at a height of 3500 ft
Overcast at a height of 9000 ft

METAR: OIIK 290300Z 03004KT 9999 SCT035 OVC090 11/10 Q1023

Time: 08:11 (03:41 UTC)


TAF: missing

Weather observations and forecasts of more than 4000 airports (METAR and TAF reports).

The available stations are represented by yellow and red dots on the map.

Hover mouse over dot to see the name of the station.

Then click to see weather observations and forecasts.

To change the map : click on the green buttons with a black cross to zoom in, on the green button with a dash to zoom out, or on the green arrows for adjacent maps.


METAR-TAF: